createdAt,value
2022-09-10T00:01:35.013Z,3.00
2022-09-10T00:04:04.631Z,2.75
2022-09-10T00:06:35.336Z,2.80
2022-09-10T00:09:05.613Z,2.77
2022-09-10T00:11:35.067Z,3.23
2022-09-10T00:14:05.391Z,3.40
2022-09-10T00:16:34.288Z,3.10
2022-09-10T00:19:03.227Z,3.25
2022-09-10T00:21:32.014Z,2.97
2022-09-10T00:24:02.044Z,3.07
2022-09-10T00:26:34.621Z,2.97
2022-09-10T00:29:05.348Z,3.13
2022-09-10T00:31:34.789Z,3.67
2022-09-10T00:34:04.588Z,3.60
2022-09-10T00:36:35.937Z,3.03
2022-09-10T00:39:07.433Z,3.77
2022-09-10T00:41:39.294Z,3.83
2022-09-10T00:44:09.465Z,3.13
2022-09-10T00:46:42.826Z,3.73
2022-09-10T00:49:15.665Z,3.83
2022-09-10T00:51:46.275Z,3.63
2022-09-10T00:54:16.089Z,4.82
2022-09-10T00:56:46.350Z,4.13
2022-09-10T00:59:18.367Z,4.33
2022-09-10T01:01:47.280Z,4.40
2022-09-10T01:04:15.755Z,4.27
2022-09-10T01:06:45.511Z,4.33
2022-09-10T01:09:15.232Z,4.77
2022-09-10T01:11:57.733Z,4.60
2022-09-10T01:14:38.621Z,5.70
2022-09-10T01:17:15.516Z,6.17
2022-09-10T01:20:27.017Z,5.85
2022-09-10T01:23:18.050Z,6.15
2022-09-10T01:25:55.133Z,5.63
2022-09-10T01:28:30.578Z,5.70
2022-09-10T01:31:06.322Z,5.90
2022-09-10T01:33:39.145Z,6.55
2022-09-10T01:36:12.680Z,5.80
2022-09-10T01:38:41.975Z,6.07
2022-09-10T01:41:11.127Z,6.07
2022-09-10T01:43:44.871Z,5.90
2022-09-10T01:46:26.235Z,5.60
2022-09-10T01:49:06.081Z,6.17
2022-09-10T01:51:50.131Z,7.37
2022-09-10T01:54:31.549Z,7.83
2022-09-10T01:57:09.122Z,7.67
2022-09-10T01:59:46.657Z,8.20
2022-09-10T02:02:20.926Z,7.70
2022-09-10T02:04:51.237Z,8.30
2022-09-10T02:07:23.464Z,8.13
2022-09-10T02:09:54.928Z,7.70
2022-09-10T02:12:25.279Z,8.37
2022-09-10T02:15:22.525Z,8.37
2022-09-10T02:18:17.058Z,8.50
2022-09-10T02:20:46.952Z,9.40
2022-09-10T02:23:18.449Z,9.30
2022-09-10T02:25:49.261Z,9.80
2022-09-10T02:28:17.841Z,9.52
2022-09-10T02:30:48.328Z,9.98
2022-09-10T02:33:17.311Z,10.27
2022-09-10T02:35:47.851Z,9.33
2022-09-10T02:38:18.189Z,10.40
2022-09-10T02:40:51.211Z,10.50
2022-09-10T02:43:20.357Z,11.30
2022-09-10T02:45:50.109Z,10.43
2022-09-10T02:48:18.531Z,10.15
2022-09-10T02:50:46.937Z,10.07
2022-09-10T02:53:15.454Z,11.33
2022-09-10T02:55:46.575Z,10.80
2022-09-10T02:58:16.668Z,11.00
2022-09-10T03:00:45.765Z,11.33
2022-09-10T03:03:17.339Z,12.40
2022-09-10T03:05:45.857Z,11.40
2022-09-10T03:08:15.467Z,12.10
2022-09-10T03:10:46.627Z,13.13
2022-09-10T03:13:14.826Z,12.50
2022-09-10T03:15:43.786Z,13.03
2022-09-10T03:18:16.424Z,13.35
2022-09-10T03:20:44.805Z,13.27
2022-09-10T03:23:13.150Z,12.32
2022-09-10T03:25:41.562Z,12.33
2022-09-10T03:28:10.838Z,13.13
2022-09-10T03:30:40.625Z,12.63
2022-09-10T03:33:11.853Z,13.17
2022-09-10T03:35:43.406Z,12.87
2022-09-10T03:38:13.841Z,12.37
2022-09-10T03:40:42.651Z,12.98
2022-09-10T03:43:13.051Z,12.33
2022-09-10T03:45:41.357Z,12.13
2022-09-10T03:48:10.448Z,13.10
2022-09-10T03:50:39.282Z,13.73
2022-09-10T03:53:09.341Z,13.70
2022-09-10T03:55:38.725Z,13.73
2022-09-10T03:58:07.253Z,13.60
2022-09-10T04:00:36.033Z,13.95
2022-09-10T04:03:05.474Z,12.73
2022-09-10T04:05:34.220Z,12.45
2022-09-10T04:08:02.981Z,12.43
2022-09-10T04:10:32.641Z,12.25
2022-09-10T04:13:01.046Z,12.37
2022-09-10T04:15:29.413Z,12.27
2022-09-10T04:17:57.853Z,12.23
2022-09-10T04:20:27.590Z,12.93
2022-09-10T04:23:03.062Z,12.55
2022-09-10T04:25:34.174Z,12.90
2022-09-10T04:28:02.814Z,12.43
2022-09-10T04:30:32.781Z,13.00
2022-09-10T04:33:02.594Z,13.13
2022-09-10T04:35:33.824Z,14.05
2022-09-10T04:38:06.082Z,14.90
2022-09-10T04:40:38.200Z,14.50
2022-09-10T04:43:06.559Z,14.33
2022-09-10T04:45:41.324Z,15.23
2022-09-10T04:48:09.735Z,15.50
2022-09-10T04:50:50.152Z,15.50
2022-09-10T04:53:28.822Z,15.13
2022-09-10T04:56:00.261Z,15.77
2022-09-10T04:58:28.668Z,16.80
2022-09-10T05:00:57.147Z,15.57
2022-09-10T05:03:26.224Z,15.40
2022-09-10T05:05:56.027Z,15.23
2022-09-10T05:08:24.731Z,16.10
2022-09-10T05:11:01.214Z,15.67
2022-09-10T05:13:31.721Z,15.23
2022-09-10T05:16:01.830Z,16.33
2022-09-10T05:18:32.672Z,16.30
2022-09-10T05:21:01.665Z,15.97
2022-09-10T05:23:30.574Z,16.47
2022-09-10T05:26:03.108Z,15.77
2022-09-10T05:28:31.902Z,17.50
2022-09-10T05:31:00.355Z,16.70
2022-09-10T05:33:30.166Z,18.00
2022-09-10T05:35:58.657Z,16.07
2022-09-10T05:38:26.953Z,17.33
2022-09-10T05:40:57.123Z,16.50
2022-09-10T05:43:27.724Z,17.67
2022-09-10T05:45:57.638Z,16.70
2022-09-10T05:48:25.999Z,17.20
2022-09-10T05:50:54.440Z,17.07
2022-09-10T05:53:22.940Z,17.63
2022-09-10T05:55:51.682Z,16.77
2022-09-10T05:58:20.163Z,17.10
2022-09-10T06:00:54.872Z,17.20
2022-09-10T06:03:25.610Z,16.47
2022-09-10T06:05:59.024Z,15.97
2022-09-10T06:08:31.733Z,15.33
2022-09-10T06:11:05.291Z,16.20
2022-09-10T06:13:43.832Z,15.97
2022-09-10T06:16:14.659Z,16.33
2022-09-10T06:18:45.337Z,15.77
2022-09-10T06:21:19.795Z,15.87
2022-09-10T06:23:54.567Z,15.33
2022-09-10T06:26:25.737Z,16.03
2022-09-10T06:28:57.828Z,17.03
2022-09-10T06:31:28.062Z,14.90
2022-09-10T06:33:57.236Z,15.60
2022-09-10T06:36:29.801Z,15.23
2022-09-10T06:38:59.929Z,14.63
2022-09-10T06:41:31.133Z,15.30
2022-09-10T06:44:22.485Z,14.50
2022-09-10T06:49:48.846Z,15.27
2022-09-10T06:52:20.160Z,14.70
2022-09-10T06:54:51.547Z,14.47
2022-09-10T06:57:40.196Z,14.63
2022-09-10T07:00:10.902Z,14.85
2022-09-10T07:02:41.901Z,14.50
2022-09-10T07:05:12.956Z,14.33
2022-09-10T07:07:43.549Z,14.77
2022-09-10T07:10:12.063Z,14.10
2022-09-10T07:12:40.820Z,15.10
2022-09-10T07:15:12.048Z,14.63
2022-09-10T07:17:41.959Z,15.17
2022-09-10T07:20:13.062Z,15.53
2022-09-10T07:22:53.072Z,14.60
2022-09-10T07:25:22.532Z,14.40
2022-09-10T07:28:14.883Z,13.90
2022-09-10T07:30:47.381Z,13.97
2022-09-10T07:33:18.126Z,14.20
2022-09-10T07:35:47.278Z,13.93
2022-09-10T07:38:16.992Z,13.38
2022-09-10T07:40:48.459Z,13.55
2022-09-10T07:43:17.760Z,14.45
2022-09-10T07:45:46.295Z,14.20
2022-09-10T07:48:14.666Z,14.40
2022-09-10T07:50:44.342Z,13.32
2022-09-10T07:53:16.466Z,14.77
2022-09-10T07:55:46.553Z,13.13
2022-09-10T07:58:16.508Z,14.60
2022-09-10T08:00:49.198Z,15.93
2022-09-10T08:03:20.441Z,15.18
2022-09-10T08:05:50.878Z,15.25
2022-09-10T08:08:20.451Z,15.05
2022-09-10T08:10:49.832Z,15.13
2022-09-10T08:13:20.295Z,16.20
2022-09-10T08:15:48.865Z,14.82
2022-09-10T08:18:17.383Z,15.77
2022-09-10T08:20:46.434Z,15.63
2022-09-10T08:23:16.605Z,15.73
2022-09-10T08:25:51.527Z,15.77
2022-09-10T08:28:25.320Z,16.25
2022-09-10T08:30:59.429Z,14.93
2022-09-10T08:33:28.214Z,15.65
2022-09-10T08:35:58.201Z,16.13
2022-09-10T08:38:31.858Z,15.85
2022-09-10T08:41:02.114Z,16.33
2022-09-10T08:43:35.893Z,15.65
2022-09-10T08:46:07.082Z,15.45
2022-09-10T08:48:37.863Z,15.82
2022-09-10T08:51:15.999Z,15.15
2022-09-10T08:53:52.728Z,16.92
2022-09-10T08:56:24.663Z,15.70
2022-09-10T08:59:03.253Z,15.90
2022-09-10T09:01:39.598Z,16.30
2022-09-10T09:04:17.052Z,16.40
2022-09-10T09:06:52.428Z,15.80
2022-09-10T09:09:23.407Z,15.18
2022-09-10T09:11:59.620Z,15.75
2022-09-10T09:14:39.755Z,15.43
2022-09-10T09:17:27.507Z,14.40
2022-09-10T09:20:06.065Z,13.60
2022-09-10T09:22:47.028Z,13.27
2022-09-10T09:25:24.779Z,14.37
2022-09-10T09:27:56.386Z,13.87
2022-09-10T09:30:33.220Z,13.65
2022-09-10T09:33:11.650Z,12.57
2022-09-10T09:35:47.502Z,12.80
2022-09-10T09:38:23.782Z,12.50
2022-09-10T09:40:58.924Z,11.93
2022-09-10T09:43:52.381Z,12.17
2022-09-10T09:46:23.297Z,12.03
2022-09-10T09:48:59.330Z,11.38
2022-09-10T09:51:35.408Z,11.15
2022-09-10T09:54:46.584Z,10.85
2022-09-10T09:57:01.681Z,10.60
2022-09-10T09:59:31.505Z,10.60
2022-09-10T10:02:05.722Z,9.80
2022-09-10T10:04:37.036Z,9.88
2022-09-10T10:07:08.674Z,9.82
2022-09-10T10:09:43.609Z,10.25
2022-09-10T10:12:21.944Z,9.00
2022-09-10T10:14:51.431Z,9.88
2022-09-10T10:17:36.963Z,8.32
2022-09-10T10:20:12.919Z,9.23
2022-09-10T10:22:42.391Z,9.32
2022-09-10T10:25:47.974Z,8.23
2022-09-10T10:28:24.135Z,8.25
2022-09-10T10:30:54.554Z,8.73
2022-09-10T10:33:29.535Z,7.88
2022-09-10T10:36:05.047Z,8.25
2022-09-10T10:38:35.356Z,8.75
2022-09-10T10:41:40.515Z,8.68
2022-09-10T10:44:25.719Z,8.48
2022-09-10T10:47:23.044Z,8.02
2022-09-10T10:50:04.619Z,7.68
2022-09-10T10:52:42.409Z,7.70
2022-09-10T10:55:18.480Z,9.10
2022-09-10T10:58:11.233Z,9.13
2022-09-10T11:00:44.522Z,8.70
2022-09-10T11:03:17.889Z,10.32
2022-09-10T11:05:48.417Z,10.50
2022-09-10T11:08:23.376Z,10.40
2022-09-10T11:10:56.766Z,10.97
2022-09-10T11:13:31.626Z,10.40
2022-09-10T11:16:06.867Z,9.60
2022-09-10T11:18:43.685Z,9.88
2022-09-10T11:21:19.124Z,9.65
2022-09-10T11:23:51.344Z,9.73
2022-09-10T11:26:25.353Z,10.60
2022-09-10T11:29:01.580Z,10.20
2022-09-10T11:31:36.222Z,10.18
2022-09-10T11:34:08.046Z,10.23
2022-09-10T11:36:43.925Z,9.73
2022-09-10T11:39:19.169Z,10.48
2022-09-10T11:41:50.241Z,9.80
2022-09-10T11:44:36.791Z,9.93
2022-09-10T11:47:14.433Z,10.05
2022-09-10T11:49:49.628Z,9.38
2022-09-10T11:52:19.311Z,8.93
2022-09-10T11:54:47.876Z,9.77
2022-09-10T11:57:27.521Z,9.07
2022-09-10T12:00:15.919Z,9.15
2022-09-10T12:03:35.041Z,9.18
2022-09-10T12:06:10.518Z,9.57
2022-09-10T12:08:55.600Z,10.52
2022-09-10T12:11:31.810Z,9.57
2022-09-10T12:14:00.936Z,4.27
2022-09-10T12:16:35.919Z,2.60
2022-09-10T12:19:10.003Z,4.05
2022-09-10T12:21:45.566Z,3.20
2022-09-10T12:24:30.940Z,3.17
2022-09-10T12:27:00.867Z,4.13
2022-09-10T12:29:33.183Z,4.22
2022-09-10T12:32:30.924Z,4.33
2022-09-10T12:35:41.625Z,4.90
2022-09-10T12:38:42.971Z,4.75
2022-09-10T12:41:14.882Z,5.20
2022-09-10T12:43:57.626Z,5.65
2022-09-10T12:46:26.993Z,5.78
2022-09-10T12:49:13.589Z,6.10
2022-09-10T12:51:57.845Z,6.40
2022-09-10T12:54:42.950Z,6.47
2022-09-10T12:57:35.789Z,7.45
2022-09-10T13:00:22.195Z,6.40
2022-09-10T13:03:09.430Z,7.00
2022-09-10T13:05:50.696Z,7.53
2022-09-10T13:08:24.355Z,7.30
2022-09-10T13:11:15.809Z,7.78
2022-09-10T13:13:52.580Z,7.57
2022-09-10T13:16:23.421Z,8.18
2022-09-10T13:18:56.816Z,8.55
2022-09-10T13:21:56.219Z,8.90
2022-09-10T13:24:39.448Z,7.85
2022-09-10T13:27:21.864Z,8.88
2022-09-10T13:29:56.617Z,9.13
2022-09-10T13:32:31.014Z,8.20
2022-09-10T13:35:29.463Z,9.02
2022-09-10T13:38:39.478Z,8.88
2022-09-10T13:41:24.622Z,8.57
2022-09-10T13:44:11.360Z,9.13
2022-09-10T13:46:43.052Z,8.10
2022-09-10T13:49:16.740Z,7.75
2022-09-10T13:51:51.785Z,7.20
2022-09-10T13:54:34.568Z,6.82
2022-09-10T13:57:09.385Z,6.95
2022-09-10T13:59:38.917Z,6.57
2022-09-10T14:02:08.667Z,6.60
2022-09-10T14:04:43.134Z,6.78
2022-09-10T14:07:16.260Z,7.00
2022-09-10T14:09:47.243Z,7.43
2022-09-10T14:12:17.782Z,7.57
2022-09-10T14:14:51.159Z,6.68
2022-09-10T14:17:25.696Z,6.95
2022-09-10T14:19:59.354Z,7.00
2022-09-10T14:22:29.459Z,7.20
2022-09-10T14:24:59.940Z,6.60
2022-09-10T14:27:31.019Z,5.47
2022-09-10T14:30:23.134Z,5.85
2022-09-10T14:32:53.636Z,5.55
2022-09-10T14:35:43.221Z,4.60
2022-09-10T14:38:25.455Z,4.60
2022-09-10T14:40:59.001Z,3.38
2022-09-10T14:43:30.185Z,3.58
2022-09-10T14:45:58.881Z,2.92
2022-09-10T14:48:35.729Z,2.38
2022-09-10T14:51:14.882Z,2.50
2022-09-10T14:53:44.177Z,2.60
2022-09-10T14:56:22.462Z,2.13
2022-09-10T14:58:58.570Z,2.90
2022-09-10T15:01:29.693Z,2.55
2022-09-10T15:04:00.488Z,2.90
2022-09-10T15:06:28.848Z,3.45
2022-09-10T15:08:57.190Z,3.60
2022-09-10T15:11:28.222Z,3.72
2022-09-10T15:13:58.958Z,3.97
2022-09-10T15:16:28.144Z,3.90
2022-09-10T15:18:58.401Z,4.30
2022-09-10T15:21:28.116Z,3.72
2022-09-10T15:23:56.349Z,3.85
2022-09-10T15:26:25.519Z,2.90
2022-09-10T15:28:53.868Z,2.33
2022-09-10T15:31:23.327Z,2.63
2022-09-10T15:33:52.666Z,2.75
2022-09-10T15:36:22.602Z,2.75
2022-09-10T15:38:55.856Z,2.30
2022-09-10T15:41:24.176Z,2.03
2022-09-10T15:43:52.809Z,1.80
2022-09-10T15:46:24.540Z,2.08
2022-09-10T15:48:53.740Z,1.83
2022-09-10T15:51:23.302Z,1.90
2022-09-10T15:53:55.106Z,2.03
2022-09-10T15:56:26.085Z,2.10
2022-09-10T15:58:56.459Z,2.55
2022-09-10T16:01:26.172Z,2.78
2022-09-10T16:03:56.993Z,3.00
2022-09-10T16:06:27.762Z,3.00
2022-09-10T16:09:02.126Z,3.47
2022-09-10T16:11:31.892Z,3.33
2022-09-10T16:14:04.765Z,4.22
2022-09-10T16:16:34.015Z,3.45
2022-09-10T16:19:02.473Z,3.90
2022-09-10T16:21:32.742Z,3.90
2022-09-10T16:24:02.816Z,3.28
2022-09-10T16:26:32.802Z,3.33
2022-09-10T16:29:02.734Z,2.97
2022-09-10T16:31:33.198Z,3.05
2022-09-10T16:34:04.770Z,3.30
2022-09-10T16:36:34.748Z,3.35
2022-09-10T16:39:07.336Z,3.25
2022-09-10T16:41:35.765Z,3.90
2022-09-10T16:44:04.442Z,3.72
2022-09-10T16:46:32.950Z,3.80
2022-09-10T16:49:01.203Z,3.60
2022-09-10T16:51:30.005Z,3.63
2022-09-10T16:54:02.630Z,4.07
2022-09-10T16:56:37.010Z,3.75
2022-09-10T16:59:07.575Z,4.30
2022-09-10T17:01:36.751Z,4.00
2022-09-10T17:04:07.540Z,3.30
2022-09-10T17:06:36.981Z,4.15
2022-09-10T17:09:05.640Z,4.00
2022-09-10T17:11:35.380Z,5.28
2022-09-10T17:14:03.693Z,4.60
2022-09-10T17:16:34.201Z,4.60
2022-09-10T17:19:04.202Z,5.22
2022-09-10T17:21:34.623Z,5.25
2022-09-10T17:24:04.581Z,5.57
2022-09-10T17:26:33.938Z,4.85
2022-09-10T17:29:06.457Z,5.38
2022-09-10T17:31:35.614Z,5.60
2022-09-10T17:34:04.783Z,5.15
2022-09-10T17:36:34.919Z,6.22
2022-09-10T17:39:03.301Z,5.90
2022-09-10T17:41:31.931Z,6.57
2022-09-10T17:44:00.815Z,6.40
2022-09-10T17:46:31.201Z,6.30
2022-09-10T17:49:01.038Z,6.30
2022-09-10T17:51:30.962Z,6.65
2022-09-10T17:53:59.699Z,6.20
2022-09-10T17:56:28.253Z,5.90
2022-09-10T17:58:59.332Z,4.57
2022-09-10T18:01:33.717Z,4.30
2022-09-10T18:04:03.093Z,4.35
2022-09-10T18:06:32.339Z,4.00
2022-09-10T18:09:01.864Z,4.05
2022-09-10T18:11:32.664Z,3.85
2022-09-10T18:14:01.940Z,4.25
2022-09-10T18:16:33.475Z,4.17
2022-09-10T18:19:03.394Z,4.00
2022-09-10T18:21:33.820Z,4.78
2022-09-10T18:24:04.316Z,4.53
2022-09-10T18:26:34.748Z,4.85
2022-09-10T18:29:05.514Z,4.88
2022-09-10T18:31:37.270Z,5.53
2022-09-10T18:34:07.421Z,5.07
2022-09-10T18:36:36.090Z,5.45
2022-09-10T18:39:05.766Z,5.65
2022-09-10T18:41:36.029Z,5.78
2022-09-10T18:44:08.106Z,4.97
2022-09-10T18:46:38.040Z,5.07
2022-09-10T18:49:06.492Z,5.57
2022-09-10T18:51:36.167Z,5.95
2022-09-10T18:54:05.437Z,5.75
2022-09-10T18:56:33.764Z,5.78
2022-09-10T18:59:04.959Z,6.32
2022-09-10T19:01:34.108Z,7.03
2022-09-10T19:04:06.381Z,6.90
2022-09-10T19:06:37.435Z,7.00
2022-09-10T19:09:09.037Z,6.95
2022-09-10T19:11:39.144Z,6.70
2022-09-10T19:14:09.306Z,7.10
2022-09-10T19:16:37.807Z,6.63
2022-09-10T19:19:08.433Z,6.80
2022-09-10T19:21:36.862Z,6.65
2022-09-10T19:24:06.653Z,6.80
2022-09-10T19:26:36.473Z,7.38
2022-09-10T19:29:05.732Z,6.63
2022-09-10T19:31:35.972Z,6.27
2022-09-10T19:34:07.422Z,7.28
2022-09-10T19:36:37.497Z,6.23
2022-09-10T19:39:07.904Z,6.90
2022-09-10T19:41:39.090Z,6.90
2022-09-10T19:44:08.627Z,6.83
2022-09-10T19:46:38.789Z,6.53
2022-09-10T19:49:07.833Z,5.90
2022-09-10T19:51:38.925Z,6.17
2022-09-10T19:54:08.200Z,6.23
2022-09-10T19:56:41.232Z,6.78
2022-09-10T19:59:10.635Z,7.32
2022-09-10T20:01:41.373Z,6.87
2022-09-10T20:04:12.030Z,6.60
2022-09-10T20:06:42.490Z,6.70
2022-09-10T20:09:11.038Z,7.17
2022-09-10T20:11:39.747Z,6.60
2022-09-10T20:14:10.067Z,6.87
2022-09-10T20:16:39.872Z,7.70
2022-09-10T20:19:09.191Z,7.20
2022-09-10T20:21:37.885Z,7.17
2022-09-10T20:24:09.089Z,7.60
2022-09-10T20:26:40.005Z,6.70
2022-09-10T20:29:10.574Z,7.20
2022-09-10T20:31:41.127Z,7.90
2022-09-10T20:34:12.342Z,7.43
2022-09-10T20:36:42.436Z,7.20
2022-09-10T20:39:14.721Z,7.43
2022-09-10T20:41:43.209Z,7.23
2022-09-10T20:44:13.969Z,7.13
2022-09-10T20:46:43.359Z,7.53
2022-09-10T20:49:13.141Z,7.83
2022-09-10T20:51:41.758Z,7.43
2022-09-10T20:54:13.155Z,7.33
2022-09-10T20:56:42.270Z,8.50
2022-09-10T20:59:12.455Z,7.17
2022-09-10T21:01:40.812Z,8.03
2022-09-10T21:04:09.289Z,7.67
2022-09-10T21:06:37.849Z,7.63
2022-09-10T21:09:07.118Z,7.80
2022-09-10T21:11:37.435Z,8.13
2022-09-10T21:14:07.433Z,8.23
2022-09-10T21:16:36.979Z,7.40
2022-09-10T21:19:08.525Z,7.67
2022-09-10T21:21:39.397Z,7.80
2022-09-10T21:24:09.415Z,7.93
2022-09-10T21:26:40.633Z,8.10
2022-09-10T21:29:11.514Z,8.53
2022-09-10T21:31:40.613Z,7.60
2022-09-10T21:34:09.333Z,7.13
2022-09-10T21:36:39.386Z,6.77
2022-09-10T21:39:12.517Z,7.47
2022-09-10T21:41:44.482Z,7.07
2022-09-10T21:44:14.954Z,8.00
2022-09-10T21:46:43.557Z,7.97
2022-09-10T21:49:13.303Z,8.20
2022-09-10T21:51:42.242Z,7.73
2022-09-10T21:54:14.833Z,7.37
2022-09-10T21:56:44.407Z,7.10
2022-09-10T21:59:13.335Z,7.47
2022-09-10T22:01:44.056Z,7.17
2022-09-10T22:04:13.192Z,7.30
2022-09-10T22:06:42.616Z,8.17
2022-09-10T22:09:13.830Z,7.50
2022-09-10T22:11:46.053Z,7.40
2022-09-10T22:14:16.184Z,7.23
2022-09-10T22:16:45.574Z,7.10
2022-09-10T22:19:18.160Z,7.20
2022-09-10T22:21:47.139Z,7.33
2022-09-10T22:24:18.601Z,6.73
2022-09-10T22:26:49.052Z,7.57
2022-09-10T22:29:18.899Z,7.17
2022-09-10T22:31:47.896Z,6.63
2022-09-10T22:34:20.424Z,7.30
2022-09-10T22:36:49.678Z,6.77
2022-09-10T22:39:19.542Z,6.90
2022-09-10T22:41:50.170Z,7.97
2022-09-10T22:44:19.942Z,7.23
2022-09-10T22:46:48.587Z,8.20
2022-09-10T22:49:17.968Z,8.13
2022-09-10T22:51:46.485Z,8.10
2022-09-10T22:54:17.519Z,8.00
2022-09-10T22:56:45.809Z,8.00
2022-09-10T22:59:16.907Z,7.47
2022-09-10T23:01:47.314Z,8.80
2022-09-10T23:04:16.209Z,8.30
2022-09-10T23:06:44.456Z,8.63
2022-09-10T23:09:14.520Z,8.73
2022-09-10T23:11:44.203Z,8.43
2022-09-10T23:14:17.877Z,8.67
2022-09-10T23:16:48.571Z,8.70
2022-09-10T23:19:19.169Z,8.70
2022-09-10T23:21:49.392Z,8.73
2022-09-10T23:24:19.977Z,8.07
2022-09-10T23:26:48.378Z,9.37
2022-09-10T23:29:18.577Z,8.50
2022-09-10T23:31:47.738Z,8.30
2022-09-10T23:34:18.641Z,8.17
2022-09-10T23:36:48.582Z,8.20
2022-09-10T23:39:19.960Z,9.27
2022-09-10T23:41:48.713Z,8.83
2022-09-10T23:44:18.840Z,9.47
2022-09-10T23:46:48.124Z,9.37
2022-09-10T23:49:16.494Z,9.47
2022-09-10T23:51:44.784Z,9.27
2022-09-10T23:54:13.282Z,9.63
2022-09-10T23:56:41.926Z,8.83
2022-09-10T23:59:11.501Z,8.93
